Leuchars, United Kingdom

4:28 AM BST on August 03, 2015 (GMT +0100)
Tay Estuary | | Change Station
CLOSE
Current Station
Personal Weather Station
Location: Tayport,
Elevation: 23 ft
Nearby Weather Stations

Elev 23 ft 56.45 °N, 2.88 °W | Updated 4 seconds ago

Clear
Clear
56.8 °F
Feels Like 56.8 °F
N
0.2
Wind Variable Wind from SE
Gusts 2.5 mph

Today
High -- | Low -- °F
--% Chance of Precip.
Yesterday
High -- | Low -- °F
Precip. -- in
5:16 AM 9:17 PM
Waning Gibbous, 90% visible
Pressure 29.68 in
Visibility -9999.0 miles
Clouds
Dew Point 56 °F
Humidity 97%
Rainfall 0.05 in
Snow Depth Not available.
UV 0.0 out of 12
Pollen Not available.
Air Quality Not available.
Flu Activity Not available.
METAR EGPH 030320Z 09009KT CAVOK 14/12 Q1005

More Conditions Fewer Conditions

Pressure 29.68 in
Visibility -9999.0 miles
Clouds
Dew Point 56 °F
Humidity 97%
Rainfall 0.05 in
Snow Depth Not available.
UV 0.0 out of 12
Pollen Not available.
Air Quality Not available.
Flu Activity Not available.
METAR EGPH 030320Z 09009KT CAVOK 14/12 Q1005

More Conditions Fewer Conditions

10-Day Weather Forecast

×

Almanac

Astronomy

Aug. 03, 2015 Rise Set
Actual Time
Civil Twilight
Nautical Twilight
Astronomical Twilight
Moon
Length of Visible Light
Length of Day
Tomorrow will be .
, % of the Moon is Illuminated

Today's Extremes

Country Highs Country Lows

Community

WunderPhotos

Upload Photos

1,843,562 photos uploaded!

WunderBlogs® & News

Nearby

Air Quality

  Air Quality AQ Index Pollutant
Not available.

Snow Depth

Station Depth Elevation

Earthquake Activity

City Distance Mag. Time & Date
Minimum magnitude displayed is 2.5.

Coastal Water Temperatures

Place Temperature

Stations

Nearby Weather Stations

Station Location Temp. Windchill Dew Point Humidity Wind Precip. Elev Updated Type